Clinton, OK

5:20 PM CDT on July 12, 2014 (GMT -0500)
Clinton Municipal (KCLK) Elev 1614 ft | 35.54 °N, 98.93 °W | Change Station

Current weather conditions updated 5 minutes ago

Clear
Clear
95 °F
Feels Like 95 °F
N
15
Wind Variable Wind from South
Gusts 26 mph

Tomorrow is forecast to be Warmer than today.

Today
High -- | Low -- °F
--% Chance of Precip.
Yesterday
High -- | Low -- °F
Precip. -- in
6:30 AM 8:52 PM
Full, 100% visible
Pressure 30.06 in
Visibility 10.0 miles
Clouds Clear
Dew Point 41 °F
Humidity 15%
Rainfall 0.00 in
Snow Depth Not available.
UV 6 out of 12
Pollen 5.00 out of 12
Air Quality Not available.
Flu Activity Local Activity
METAR KCLK 122215Z AUTO 19013G23KT 10SM CLR 35/05 A3006 RMK AO2

More Conditions Fewer Conditions

Pressure 30.06 in
Visibility 10.0 miles
Clouds Clear
Dew Point 41 °F
Humidity 15%
Rainfall 0.00 in
Snow Depth Not available.
UV 6 out of 12
Pollen 5.00 out of 12
Air Quality Not available.
Flu Activity Local Activity
METAR KCLK 122215Z AUTO 19013G23KT 10SM CLR 35/05 A3006 RMK AO2

More Conditions Fewer Conditions

10-Day Weather Forecast

Almanac

Astronomy

Jul. 12, 2014 Rise Set
Actual Time 6:30 AM CDT 8:52 PM CDT
Civil Twilight 6:00 AM CDT 9:22 PM CDT
Nautical Twilight 5:24 AM CDT 9:58 PM CDT
Astronomical Twilight 4:44 AM CDT 10:37 PM CDT
Moon 9:00 PM CDT 6:48 AM CDT
Length of Visible Light 15h 21m
Length of Day
14h 22m
Tomorrow will be 1m 2s shorter.
Full, 100% of the Moon is Illuminated
Today
Full
Jul 18
Last Quarter
Jul 26
New
Aug 3
First Quarter
Aug 10
Full

Today's Extremes

State Highs State Lows

Community

WunderPhotos

Upload Photos

1,732,983 photos uploaded!

Nearby

Snow Depth

Station Depth Elevation
No new snow has been reported.

Earthquake Activity

City Distance Mag. Time & Date
Helena, Oklahoma 94 miles 3.0 2:44 AM CDT
2014-07-07
Perkins, Oklahoma 110 miles 2.6 10:56 PM CDT
2014-07-06
Cherokee, Oklahoma 104 miles 2.5 10:52 PM CDT
2014-07-06
Stillwater, Oklahoma 116 miles 2.5 7:38 PM CDT
2014-07-06
Minimum magnitude displayed is 2.5.

Coastal Water Temperatures

Place Temperature
No Stations Reporting

Nearby Weather Stations

Station Location Temp. Heat Index Dew Point Humidity Wind Precip. Elev Updated Type
Custer City, Custer City, OK 95.2 °F 94 °F 56 °F 27% SSW  at  8.9 mph 0.00 in / hr 1775 ft 5:20 PM CDT Rapid Fire
HADS MUNICIPAL AIRPORT NEAR ELK CITY OK, Elk City, OK 93 °F 89 °F - - North  at  - 0.00 in / hr 1981 ft 4:00 PM CDT MADIS

Show More Stations Show Fewer Stations